createdAt,value
2023-02-08T00:01:43.592Z,4.47
2023-02-08T00:06:45.144Z,6.22
2023-02-08T00:11:48.106Z,7.53
2023-02-08T00:16:49.679Z,6.15
2023-02-08T00:21:51.335Z,5.55
2023-02-08T00:26:54.238Z,5.50
2023-02-08T00:31:55.864Z,5.68
2023-02-08T00:36:57.415Z,5.00
2023-02-08T00:42:00.350Z,6.00
2023-02-08T00:47:02.021Z,4.65
2023-02-08T00:52:03.541Z,4.65
2023-02-08T00:57:07.750Z,6.15
2023-02-08T01:02:09.400Z,5.82
2023-02-08T01:07:11.144Z,6.70
2023-02-08T01:12:14.003Z,6.68
2023-02-08T01:17:15.540Z,7.00
2023-02-08T01:22:17.070Z,8.63
2023-02-08T01:27:19.981Z,6.88
2023-02-08T01:32:21.570Z,7.40
2023-02-08T01:37:23.076Z,8.18
2023-02-08T01:42:25.936Z,9.10
2023-02-08T01:47:27.702Z,7.75
2023-02-08T01:52:29.367Z,6.63
2023-02-08T01:57:32.737Z,7.60
2023-02-08T02:02:36.173Z,9.77
2023-02-08T02:07:38.566Z,8.95
2023-02-08T02:12:42.021Z,9.25
2023-02-08T02:17:43.829Z,9.98
2023-02-08T02:23:23.032Z,9.73
2023-02-08T02:29:03.534Z,11.23
2023-02-08T02:34:10.160Z,8.52
2023-02-08T02:39:20.537Z,9.80
2023-02-08T02:50:02.367Z,10.32
2023-02-08T02:55:09.671Z,8.50
2023-02-08T03:00:19.626Z,11.73
2023-02-08T03:05:22.714Z,10.32
2023-02-08T03:10:50.419Z,8.95
2023-02-08T03:16:02.448Z,11.93
2023-02-08T03:21:10.035Z,9.93
2023-02-08T03:26:19.197Z,10.23
2023-02-08T03:31:31.024Z,9.15
2023-02-08T03:36:40.574Z,12.93
2023-02-08T03:41:46.341Z,12.93
2023-02-08T03:46:52.248Z,11.55
2023-02-08T03:51:58.026Z,14.93
2023-02-08T03:57:06.830Z,11.90
2023-02-08T04:02:13.688Z,15.15
2023-02-08T04:07:18.235Z,15.93
2023-02-08T04:12:19.884Z,15.65
2023-02-08T04:17:21.426Z,16.02
2023-02-08T04:22:24.301Z,15.35
2023-02-08T04:27:25.970Z,19.90
2023-02-08T04:32:33.115Z,17.70
2023-02-08T04:37:36.000Z,21.20
2023-02-08T04:42:37.544Z,23.58
2023-02-08T04:47:39.121Z,22.20
2023-02-08T04:52:42.205Z,20.85
2023-02-08T04:57:43.818Z,18.67
2023-02-08T05:02:45.508Z,18.60
2023-02-08T05:07:48.943Z,19.10
2023-02-08T05:12:50.790Z,19.35
2023-02-08T05:17:52.372Z,25.52
2023-02-08T05:22:55.234Z,20.05
2023-02-08T05:27:56.797Z,18.48
2023-02-08T05:32:58.387Z,21.33
2023-02-08T05:38:01.294Z,17.02
2023-02-08T05:43:02.892Z,13.82
2023-02-08T05:48:04.553Z,18.13
2023-02-08T05:53:07.717Z,21.83
2023-02-08T05:58:09.317Z,16.75
2023-02-08T06:03:11.164Z,17.30
2023-02-08T06:08:14.228Z,12.98
2023-02-08T06:13:15.866Z,14.57
2023-02-08T06:18:17.545Z,16.45
2023-02-08T06:23:20.653Z,16.98
2023-02-08T06:28:22.369Z,20.33
2023-02-08T06:33:23.978Z,17.75
2023-02-08T06:38:27.007Z,23.73
2023-02-08T06:43:28.566Z,18.55
2023-02-08T06:48:30.448Z,16.15
2023-02-08T06:53:33.520Z,17.75
2023-02-08T06:58:35.098Z,22.63
2023-02-08T07:03:36.626Z,20.15
2023-02-08T07:08:39.650Z,18.88
2023-02-08T07:13:41.669Z,22.73
2023-02-08T07:18:43.742Z,18.27
2023-02-08T07:23:46.705Z,19.70
2023-02-08T07:28:48.295Z,23.52
2023-02-08T07:33:49.937Z,24.40
2023-02-08T07:38:52.874Z,25.30
2023-02-08T07:43:54.500Z,26.92
2023-02-08T07:48:56.074Z,25.80
2023-02-08T07:53:59.028Z,28.95
2023-02-08T07:59:00.832Z,16.33
2023-02-08T08:04:02.390Z,24.42
2023-02-08T08:09:05.334Z,19.15
2023-02-08T08:14:06.913Z,27.73
2023-02-08T08:19:08.496Z,25.30
2023-02-08T08:24:11.419Z,18.67
2023-02-08T08:29:13.129Z,18.30
2023-02-08T08:34:14.626Z,22.42
2023-02-08T08:39:17.472Z,25.33
2023-02-08T08:44:19.383Z,19.67
2023-02-08T08:49:20.927Z,18.02
2023-02-08T08:54:24.013Z,21.33
2023-02-08T08:59:25.636Z,25.17
2023-02-08T09:04:27.171Z,18.02
2023-02-08T09:09:30.103Z,20.10
2023-02-08T09:14:31.662Z,24.83
2023-02-08T09:19:33.208Z,21.27
2023-02-08T09:24:36.152Z,16.98
2023-02-08T09:29:37.653Z,16.70
2023-02-08T09:34:39.134Z,18.38
2023-02-08T09:39:42.110Z,17.00
2023-02-08T09:44:59.297Z,15.52
2023-02-08T09:50:05.164Z,13.75
2023-02-08T09:55:19.663Z,13.00
2023-02-08T10:00:27.421Z,14.35
2023-02-08T10:05:31.293Z,13.55
2023-02-08T10:10:47.221Z,16.17
2023-02-08T10:15:53.291Z,12.02
2023-02-08T10:21:16.310Z,16.23
2023-02-08T10:26:31.430Z,16.00
2023-02-08T10:31:50.736Z,14.07
2023-02-08T10:36:52.838Z,13.55
2023-02-08T10:41:56.094Z,18.30
2023-02-08T10:47:13.372Z,13.63
2023-02-08T10:52:14.909Z,16.92
2023-02-08T10:57:23.503Z,15.07
2023-02-08T11:02:28.837Z,13.32
2023-02-08T11:07:31.302Z,15.68
2023-02-08T11:12:34.481Z,17.08
2023-02-08T11:17:36.006Z,16.95
2023-02-08T11:22:37.755Z,14.75
2023-02-08T11:27:48.732Z,15.07
2023-02-08T11:33:27.963Z,19.13
2023-02-08T11:38:33.324Z,19.52
2023-02-08T11:43:36.158Z,16.98
2023-02-08T11:48:44.434Z,17.00
2023-02-08T11:53:48.863Z,14.70
2023-02-08T11:59:02.244Z,16.02
2023-02-08T12:04:06.621Z,17.25
2023-02-08T12:09:17.797Z,15.82
2023-02-08T12:14:33.938Z,17.20
2023-02-08T12:20:09.154Z,15.90
2023-02-08T12:25:24.611Z,19.48
2023-02-08T12:30:32.586Z,17.90
2023-02-08T12:36:05.319Z,13.40
2023-02-08T12:41:18.038Z,14.38
2023-02-08T12:46:43.995Z,16.63
2023-02-08T12:51:53.337Z,21.08
2023-02-08T12:57:02.366Z,23.55
2023-02-08T13:02:13.326Z,15.10
2023-02-08T13:07:20.163Z,15.85
2023-02-08T13:12:28.661Z,18.33
2023-02-08T13:17:42.050Z,20.35
2023-02-08T13:22:43.562Z,16.10
2023-02-08T13:27:46.600Z,16.00
2023-02-08T13:32:50.481Z,19.05
2023-02-08T13:37:55.889Z,15.57
2023-02-08T13:43:02.246Z,17.52
2023-02-08T13:48:06.056Z,16.90
2023-02-08T13:53:08.476Z,19.35
2023-02-08T13:58:43.380Z,20.52
2023-02-08T14:04:29.929Z,19.15
2023-02-08T14:09:44.514Z,17.63
2023-02-08T14:15:05.479Z,16.60
2023-02-08T14:20:19.133Z,17.65
2023-02-08T14:25:23.673Z,18.90
2023-02-08T14:30:28.614Z,16.48
2023-02-08T14:35:33.890Z,18.63
2023-02-08T14:40:49.410Z,13.77
2023-02-08T14:45:52.946Z,18.05
2023-02-08T14:51:15.519Z,15.20
2023-02-08T14:56:22.463Z,17.83
2023-02-08T15:01:44.057Z,19.02
2023-02-08T15:07:19.690Z,17.35
2023-02-08T15:12:26.417Z,17.17
2023-02-08T15:17:33.569Z,15.47
2023-02-08T15:22:38.476Z,16.20
2023-02-08T15:27:46.900Z,16.20
2023-02-08T15:32:48.519Z,15.90
2023-02-08T15:37:52.293Z,11.30
2023-02-08T15:42:54.026Z,17.65
2023-02-08T15:47:56.317Z,13.63
2023-02-08T15:53:01.466Z,14.32
2023-02-08T15:58:06.752Z,17.00
2023-02-08T16:03:17.261Z,20.75
2023-02-08T16:08:24.063Z,11.82
2023-02-08T16:13:28.692Z,11.93
2023-02-08T16:18:43.968Z,12.55
2023-02-08T16:23:50.774Z,14.93
2023-02-08T16:28:55.916Z,12.18
2023-02-08T16:34:00.247Z,13.57
2023-02-08T16:39:23.379Z,9.77
2023-02-08T16:44:26.956Z,12.70
2023-02-08T16:49:28.636Z,12.23
2023-02-08T16:54:31.554Z,13.88
2023-02-08T16:59:33.141Z,11.55
2023-02-08T17:04:34.761Z,14.60
2023-02-08T17:09:37.600Z,13.27
2023-02-08T17:14:39.129Z,13.60
2023-02-08T17:19:40.650Z,13.95
2023-02-08T17:24:43.495Z,13.50
2023-02-08T17:29:45.121Z,14.13
2023-02-08T17:34:46.744Z,13.95
2023-02-08T17:39:53.366Z,13.55
2023-02-08T17:44:54.888Z,14.70
2023-02-08T17:49:57.132Z,14.20
2023-02-08T17:54:59.997Z,15.10
2023-02-08T18:00:02.839Z,14.93
2023-02-08T18:05:04.910Z,13.65
2023-02-08T18:10:09.222Z,14.70
2023-02-08T18:15:13.582Z,15.25
2023-02-08T18:20:16.309Z,14.45
2023-02-08T18:25:19.366Z,13.77
2023-02-08T18:30:20.982Z,14.85
2023-02-08T18:35:22.677Z,15.77
2023-02-08T18:40:25.593Z,14.75
2023-02-08T18:45:27.166Z,16.20
2023-02-08T18:50:28.694Z,15.95
2023-02-08T18:55:31.676Z,15.48
2023-02-08T19:00:33.423Z,17.00
2023-02-08T19:05:37.119Z,16.23
2023-02-08T19:10:41.365Z,17.13
2023-02-08T19:15:43.203Z,16.00
2023-02-08T19:20:44.845Z,16.95
2023-02-08T19:25:47.787Z,15.30
2023-02-08T19:30:49.402Z,17.05
2023-02-08T19:35:51.009Z,13.32
2023-02-08T19:40:54.927Z,15.23
2023-02-08T19:45:56.633Z,14.25
2023-02-08T19:50:59.706Z,10.18
2023-02-08T19:56:04.792Z,13.15
2023-02-08T20:01:07.300Z,18.00
2023-02-08T20:06:14.185Z,16.70
2023-02-08T20:11:20.568Z,14.88
2023-02-08T20:16:23.182Z,16.80
2023-02-08T20:21:24.846Z,14.63
2023-02-08T20:26:28.514Z,10.60
2023-02-08T20:31:32.022Z,10.30
2023-02-08T20:36:35.623Z,12.88
2023-02-08T20:41:38.918Z,14.25
2023-02-08T20:46:40.833Z,15.75
2023-02-08T20:51:42.482Z,13.40
2023-02-08T20:56:45.336Z,11.93
2023-02-08T21:01:53.049Z,15.88
2023-02-08T21:06:54.577Z,17.45
2023-02-08T21:11:57.501Z,17.42
2023-02-08T21:16:59.086Z,18.45
2023-02-08T21:22:01.757Z,16.40
2023-02-08T21:27:04.665Z,17.42
2023-02-08T21:32:06.341Z,17.27
2023-02-08T21:37:07.906Z,16.13
2023-02-08T21:42:10.826Z,17.10
2023-02-08T21:47:12.386Z,18.65
2023-02-08T21:52:14.108Z,16.27
2023-02-08T21:57:19.817Z,16.13
2023-02-08T22:02:24.020Z,17.13
2023-02-08T22:07:26.484Z,14.93
2023-02-08T22:12:29.409Z,16.15
2023-02-08T22:17:30.993Z,17.35
2023-02-08T22:22:32.680Z,16.83
2023-02-08T22:27:35.591Z,18.45
2023-02-08T22:32:39.348Z,16.88
2023-02-08T22:37:40.962Z,15.00
2023-02-08T22:42:43.829Z,16.55
2023-02-08T22:47:46.219Z,17.13
2023-02-08T22:52:47.805Z,17.45
2023-02-08T22:57:50.736Z,16.92
2023-02-08T23:02:52.329Z,17.85
2023-02-08T23:07:53.947Z,19.15
2023-02-08T23:12:56.851Z,18.88
2023-02-08T23:17:58.577Z,17.77
2023-02-08T23:23:00.209Z,16.08
2023-02-08T23:28:03.212Z,16.70
2023-02-08T23:33:04.749Z,16.58
2023-02-08T23:38:06.391Z,14.27
2023-02-08T23:43:09.363Z,14.73
2023-02-08T23:48:10.962Z,15.77
2023-02-08T23:53:12.483Z,15.98
2023-02-08T23:58:15.376Z,17.42
